Rechercher aéroport 
image banner adimage banner adimage banner ad
image banner ad

74L - Malibu Administrative Center

Situé à Malibu, United States

ICAO - 74L, IATA -

Données fournies par Airmate  

Information générale

Coordonnées: N34°2'15" W118°41'22"
Élévation : 29 feet MSL.
Variation magnétique : 14° East
Voir autres Aéroports à California

Données opérationnelles

Special qualification required
Heure actuelle UTC:
Heure actuelle locale:
Météo à : KSMO - Santa Monica Muni ( 22 km )
METAR: KSMO 020451Z AUTO 00000KT 10SM CLR 19/14 A3001 RMK AO2 SLP161 T01890144
TAF: KSMO 012348Z 0200/0224 23011KT P6SM FEW120 FM020400 22004KT P6SM SKC FM021200 VRB03KT 6SM BR SCT006 FM021700 22004KT P6SM SKC FM022000 23010KT P6SM SKC
Voir NOTAMs / SUP AIP / TFR affectant cet aéroport [VIEW]
Fréquences de communication: [VIEW]

Pistes:

Coordonnées de l'aéroport

Adresse: Malibu United States

Vue satellite de 74L